sensor_id;sensor_type;location;lat;lon;timestamp;P1;durP1;ratioP1;P2;durP2;ratioP2
18853;SDS011;9556;49.374;19.446;2022-07-23T00:00:11;22.83;;;14.10;;
18853;SDS011;9556;49.374;19.446;2022-07-23T00:02:39;23.07;;;14.27;;
18853;SDS011;9556;49.374;19.446;2022-07-23T00:05:07;21.10;;;13.73;;
18853;SDS011;9556;49.374;19.446;2022-07-23T00:07:34;20.37;;;13.37;;
18853;SDS011;9556;49.374;19.446;2022-07-23T00:10:02;22.33;;;14.17;;
18853;SDS011;9556;49.374;19.446;2022-07-23T00:12:29;24.50;;;14.00;;
18853;SDS011;9556;49.374;19.446;2022-07-23T00:14:56;21.83;;;13.30;;
18853;SDS011;9556;49.374;19.446;2022-07-23T00:17:23;23.37;;;14.03;;
18853;SDS011;9556;49.374;19.446;2022-07-23T00:19:50;24.23;;;13.30;;
18853;SDS011;9556;49.374;19.446;2022-07-23T00:22:20;20.93;;;13.50;;
18853;SDS011;9556;49.374;19.446;2022-07-23T00:24:47;25.33;;;13.60;;
18853;SDS011;9556;49.374;19.446;2022-07-23T00:27:14;19.23;;;13.30;;
18853;SDS011;9556;49.374;19.446;2022-07-23T00:29:41;19.57;;;12.77;;
18853;SDS011;9556;49.374;19.446;2022-07-23T00:32:08;20.47;;;12.00;;
18853;SDS011;9556;49.374;19.446;2022-07-23T00:34:35;17.73;;;12.53;;
18853;SDS011;9556;49.374;19.446;2022-07-23T00:37:02;19.63;;;12.80;;
18853;SDS011;9556;49.374;19.446;2022-07-23T00:39:31;20.33;;;12.53;;
18853;SDS011;9556;49.374;19.446;2022-07-23T00:41:58;17.27;;;12.13;;
18853;SDS011;9556;49.374;19.446;2022-07-23T00:44:26;23.10;;;12.60;;
18853;SDS011;9556;49.374;19.446;2022-07-23T00:46:53;18.37;;;11.60;;
18853;SDS011;9556;49.374;19.446;2022-07-23T00:49:21;24.87;;;12.00;;
18853;SDS011;9556;49.374;19.446;2022-07-23T00:51:48;19.93;;;12.27;;
18853;SDS011;9556;49.374;19.446;2022-07-23T00:54:16;34.00;;;13.60;;
18853;SDS011;9556;49.374;19.446;2022-07-23T00:56:46;18.63;;;13.10;;
18853;SDS011;9556;49.374;19.446;2022-07-23T00:59:13;24.13;;;12.63;;
18853;SDS011;9556;49.374;19.446;2022-07-23T01:01:41;20.57;;;13.90;;
18853;SDS011;9556;49.374;19.446;2022-07-23T01:04:09;26.20;;;15.27;;
18853;SDS011;9556;49.374;19.446;2022-07-23T01:06:36;23.73;;;15.70;;
18853;SDS011;9556;49.374;19.446;2022-07-23T01:09:04;25.80;;;15.73;;
18853;SDS011;9556;49.374;19.446;2022-07-23T01:11:32;22.93;;;15.50;;
18853;SDS011;9556;49.374;19.446;2022-07-23T01:14:06;21.93;;;15.10;;
18853;SDS011;9556;49.374;19.446;2022-07-23T01:16:34;25.53;;;14.40;;
18853;SDS011;9556;49.374;19.446;2022-07-23T01:19:01;21.43;;;14.57;;
18853;SDS011;9556;49.374;19.446;2022-07-23T01:21:29;20.57;;;14.00;;
18853;SDS011;9556;49.374;19.446;2022-07-23T01:23:58;20.97;;;13.90;;
18853;SDS011;9556;49.374;19.446;2022-07-23T01:26:25;22.60;;;13.30;;
18853;SDS011;9556;49.374;19.446;2022-07-23T01:28:52;20.50;;;13.90;;
18853;SDS011;9556;49.374;19.446;2022-07-23T01:31:19;18.30;;;13.00;;
18853;SDS011;9556;49.374;19.446;2022-07-23T01:33:46;21.80;;;13.33;;
18853;SDS011;9556;49.374;19.446;2022-07-23T01:36:14;19.67;;;13.40;;
18853;SDS011;9556;49.374;19.446;2022-07-23T01:38:41;21.77;;;13.80;;
18853;SDS011;9556;49.374;19.446;2022-07-23T01:41:09;19.70;;;13.67;;
18853;SDS011;9556;49.374;19.446;2022-07-23T01:43:36;23.47;;;15.00;;
18853;SDS011;9556;49.374;19.446;2022-07-23T01:46:03;20.13;;;14.03;;
18853;SDS011;9556;49.374;19.446;2022-07-23T01:48:31;18.33;;;13.70;;
18853;SDS011;9556;49.374;19.446;2022-07-23T01:50:58;23.07;;;14.67;;
18853;SDS011;9556;49.374;19.446;2022-07-23T01:53:25;21.83;;;13.93;;
18853;SDS011;9556;49.374;19.446;2022-07-23T01:55:52;21.87;;;13.60;;
18853;SDS011;9556;49.374;19.446;2022-07-23T01:58:20;23.07;;;14.67;;
18853;SDS011;9556;49.374;19.446;2022-07-23T02:00:47;22.10;;;14.53;;
18853;SDS011;9556;49.374;19.446;2022-07-23T02:03:15;29.17;;;16.93;;
18853;SDS011;9556;49.374;19.446;2022-07-23T02:05:42;20.17;;;14.73;;
18853;SDS011;9556;49.374;19.446;2022-07-23T02:08:09;20.90;;;15.10;;
18853;SDS011;9556;49.374;19.446;2022-07-23T02:10:36;24.53;;;15.63;;
18853;SDS011;9556;49.374;19.446;2022-07-23T02:13:03;23.40;;;16.13;;
18853;SDS011;9556;49.374;19.446;2022-07-23T02:15:31;26.13;;;16.40;;
18853;SDS011;9556;49.374;19.446;2022-07-23T02:17:59;24.60;;;15.07;;
18853;SDS011;9556;49.374;19.446;2022-07-23T02:20:26;27.37;;;14.80;;
18853;SDS011;9556;49.374;19.446;2022-07-23T02:22:53;21.13;;;14.07;;
18853;SDS011;9556;49.374;19.446;2022-07-23T02:25:20;20.50;;;14.03;;
18853;SDS011;9556;49.374;19.446;2022-07-23T02:27:47;27.20;;;16.07;;
18853;SDS011;9556;49.374;19.446;2022-07-23T02:30:15;21.63;;;14.20;;
18853;SDS011;9556;49.374;19.446;2022-07-23T02:32:43;22.93;;;15.83;;
18853;SDS011;9556;49.374;19.446;2022-07-23T02:35:10;24.43;;;16.50;;
18853;SDS011;9556;49.374;19.446;2022-07-23T02:37:38;23.37;;;15.63;;
18853;SDS011;9556;49.374;19.446;2022-07-23T02:40:05;24.37;;;16.60;;
18853;SDS011;9556;49.374;19.446;2022-07-23T02:42:33;23.67;;;17.20;;
18853;SDS011;9556;49.374;19.446;2022-07-23T02:45:00;29.83;;;18.83;;
18853;SDS011;9556;49.374;19.446;2022-07-23T02:47:27;28.80;;;18.17;;
18853;SDS011;9556;49.374;19.446;2022-07-23T02:49:55;28.10;;;16.53;;
18853;SDS011;9556;49.374;19.446;2022-07-23T02:52:22;24.80;;;16.87;;
18853;SDS011;9556;49.374;19.446;2022-07-23T02:54:49;24.73;;;17.30;;
18853;SDS011;9556;49.374;19.446;2022-07-23T02:57:17;25.70;;;18.13;;
18853;SDS011;9556;49.374;19.446;2022-07-23T02:59:44;26.40;;;17.27;;
18853;SDS011;9556;49.374;19.446;2022-07-23T03:02:11;25.20;;;17.67;;
18853;SDS011;9556;49.374;19.446;2022-07-23T03:04:38;27.80;;;17.73;;
18853;SDS011;9556;49.374;19.446;2022-07-23T03:07:08;29.13;;;17.00;;
18853;SDS011;9556;49.374;19.446;2022-07-23T03:09:35;23.27;;;16.90;;
18853;SDS011;9556;49.374;19.446;2022-07-23T03:12:02;26.17;;;17.90;;
18853;SDS011;9556;49.374;19.446;2022-07-23T03:14:30;30.07;;;16.63;;
18853;SDS011;9556;49.374;19.446;2022-07-23T03:16:57;23.30;;;16.57;;
18853;SDS011;9556;49.374;19.446;2022-07-23T03:19:25;23.67;;;16.33;;
18853;SDS011;9556;49.374;19.446;2022-07-23T03:21:52;23.10;;;15.30;;
18853;SDS011;9556;49.374;19.446;2022-07-23T03:24:20;22.03;;;14.23;;
18853;SDS011;9556;49.374;19.446;2022-07-23T03:26:48;23.13;;;14.10;;
18853;SDS011;9556;49.374;19.446;2022-07-23T03:29:15;22.80;;;15.27;;
18853;SDS011;9556;49.374;19.446;2022-07-23T03:31:43;25.43;;;14.57;;
18853;SDS011;9556;49.374;19.446;2022-07-23T03:34:10;24.57;;;14.60;;
18853;SDS011;9556;49.374;19.446;2022-07-23T03:36:37;21.47;;;14.47;;
18853;SDS011;9556;49.374;19.446;2022-07-23T03:39:04;21.80;;;15.07;;
18853;SDS011;9556;49.374;19.446;2022-07-23T03:41:33;23.10;;;14.90;;
18853;SDS011;9556;49.374;19.446;2022-07-23T03:44:00;25.27;;;15.90;;
18853;SDS011;9556;49.374;19.446;2022-07-23T03:46:27;23.83;;;14.60;;
18853;SDS011;9556;49.374;19.446;2022-07-23T03:48:54;24.23;;;17.30;;
18853;SDS011;9556;49.374;19.446;2022-07-23T03:51:21;22.80;;;16.50;;
18853;SDS011;9556;49.374;19.446;2022-07-23T03:53:48;25.70;;;16.03;;
18853;SDS011;9556;49.374;19.446;2022-07-23T03:56:15;19.80;;;14.87;;
18853;SDS011;9556;49.374;19.446;2022-07-23T03:58:44;20.70;;;15.10;;
18853;SDS011;9556;49.374;19.446;2022-07-23T04:01:11;21.33;;;14.90;;
18853;SDS011;9556;49.374;19.446;2022-07-23T04:03:38;21.23;;;15.23;;
18853;SDS011;9556;49.374;19.446;2022-07-23T04:06:05;21.77;;;15.57;;
18853;SDS011;9556;49.374;19.446;2022-07-23T04:08:33;25.13;;;16.50;;
18853;SDS011;9556;49.374;19.446;2022-07-23T04:11:00;24.67;;;16.63;;
18853;SDS011;9556;49.374;19.446;2022-07-23T04:13:27;25.27;;;16.07;;
18853;SDS011;9556;49.374;19.446;2022-07-23T04:15:55;24.77;;;16.37;;
18853;SDS011;9556;49.374;19.446;2022-07-23T04:18:22;24.70;;;16.27;;
18853;SDS011;9556;49.374;19.446;2022-07-23T04:20:50;22.67;;;15.53;;
18853;SDS011;9556;49.374;19.446;2022-07-23T04:23:17;23.17;;;15.97;;
18853;SDS011;9556;49.374;19.446;2022-07-23T04:25:44;24.00;;;16.17;;
18853;SDS011;9556;49.374;19.446;2022-07-23T04:28:12;28.77;;;15.63;;
18853;SDS011;9556;49.374;19.446;2022-07-23T04:30:39;24.07;;;15.40;;
18853;SDS011;9556;49.374;19.446;2022-07-23T04:33:07;27.03;;;16.13;;
18853;SDS011;9556;49.374;19.446;2022-07-23T04:35:34;29.43;;;17.87;;
18853;SDS011;9556;49.374;19.446;2022-07-23T04:38:01;38.83;;;22.97;;
18853;SDS011;9556;49.374;19.446;2022-07-23T04:40:29;34.30;;;22.80;;
18853;SDS011;9556;49.374;19.446;2022-07-23T04:42:56;37.13;;;18.90;;
18853;SDS011;9556;49.374;19.446;2022-07-23T04:45:23;22.90;;;16.40;;
18853;SDS011;9556;49.374;19.446;2022-07-23T04:47:50;26.40;;;16.33;;
18853;SDS011;9556;49.374;19.446;2022-07-23T04:50:19;30.17;;;16.63;;
18853;SDS011;9556;49.374;19.446;2022-07-23T04:52:47;29.13;;;16.13;;
18853;SDS011;9556;49.374;19.446;2022-07-23T04:55:14;22.93;;;16.30;;
18853;SDS011;9556;49.374;19.446;2022-07-23T04:57:42;28.57;;;16.97;;
18853;SDS011;9556;49.374;19.446;2022-07-23T05:00:09;26.90;;;17.03;;
18853;SDS011;9556;49.374;19.446;2022-07-23T05:02:36;27.83;;;17.57;;
18853;SDS011;9556;49.374;19.446;2022-07-23T05:05:04;24.60;;;16.93;;
18853;SDS011;9556;49.374;19.446;2022-07-23T05:07:32;25.93;;;16.93;;
18853;SDS011;9556;49.374;19.446;2022-07-23T05:09:59;26.77;;;18.03;;
18853;SDS011;9556;49.374;19.446;2022-07-23T05:12:26;27.07;;;18.30;;
18853;SDS011;9556;49.374;19.446;2022-07-23T05:14:54;25.93;;;17.27;;
18853;SDS011;9556;49.374;19.446;2022-07-23T05:17:21;27.00;;;17.80;;
18853;SDS011;9556;49.374;19.446;2022-07-23T05:19:48;30.07;;;17.70;;
18853;SDS011;9556;49.374;19.446;2022-07-23T05:22:15;26.33;;;18.37;;
18853;SDS011;9556;49.374;19.446;2022-07-23T05:24:43;28.17;;;18.23;;
18853;SDS011;9556;49.374;19.446;2022-07-23T05:27:10;30.47;;;19.07;;
18853;SDS011;9556;49.374;19.446;2022-07-23T05:29:37;27.63;;;17.87;;
18853;SDS011;9556;49.374;19.446;2022-07-23T05:32:05;26.70;;;18.00;;
18853;SDS011;9556;49.374;19.446;2022-07-23T05:34:32;25.20;;;18.13;;
18853;SDS011;9556;49.374;19.446;2022-07-23T05:36:59;26.57;;;17.77;;
18853;SDS011;9556;49.374;19.446;2022-07-23T05:39:26;24.80;;;16.97;;
18853;SDS011;9556;49.374;19.446;2022-07-23T05:41:54;32.40;;;18.37;;
18853;SDS011;9556;49.374;19.446;2022-07-23T05:44:22;28.60;;;18.87;;
18853;SDS011;9556;49.374;19.446;2022-07-23T05:46:49;29.70;;;18.10;;
18853;SDS011;9556;49.374;19.446;2022-07-23T05:49:16;28.13;;;19.30;;
18853;SDS011;9556;49.374;19.446;2022-07-23T05:51:43;27.13;;;18.40;;
18853;SDS011;9556;49.374;19.446;2022-07-23T05:54:10;29.47;;;18.60;;
18853;SDS011;9556;49.374;19.446;2022-07-23T05:56:37;25.83;;;18.33;;
18853;SDS011;9556;49.374;19.446;2022-07-23T05:59:06;24.97;;;18.20;;
18853;SDS011;9556;49.374;19.446;2022-07-23T06:01:33;24.63;;;17.23;;
18853;SDS011;9556;49.374;19.446;2022-07-23T06:04:00;23.37;;;16.57;;
18853;SDS011;9556;49.374;19.446;2022-07-23T06:06:27;26.40;;;16.87;;
18853;SDS011;9556;49.374;19.446;2022-07-23T06:08:54;26.27;;;16.30;;
18853;SDS011;9556;49.374;19.446;2022-07-23T06:11:21;24.47;;;16.93;;
18853;SDS011;9556;49.374;19.446;2022-07-23T06:13:48;24.57;;;17.40;;
18853;SDS011;9556;49.374;19.446;2022-07-23T06:16:17;21.87;;;15.70;;
18853;SDS011;9556;49.374;19.446;2022-07-23T06:18:44;27.30;;;16.33;;
18853;SDS011;9556;49.374;19.446;2022-07-23T06:21:11;31.07;;;18.17;;
18853;SDS011;9556;49.374;19.446;2022-07-23T06:23:38;24.80;;;17.73;;
18853;SDS011;9556;49.374;19.446;2022-07-23T06:26:05;30.30;;;16.90;;
18853;SDS011;9556;49.374;19.446;2022-07-23T06:28:33;29.00;;;19.00;;
18853;SDS011;9556;49.374;19.446;2022-07-23T06:31:00;39.47;;;19.37;;
18853;SDS011;9556;49.374;19.446;2022-07-23T06:33:28;36.00;;;18.30;;
18853;SDS011;9556;49.374;19.446;2022-07-23T06:35:55;43.03;;;18.33;;
18853;SDS011;9556;49.374;19.446;2022-07-23T06:38:22;34.97;;;17.33;;
18853;SDS011;9556;49.374;19.446;2022-07-23T06:40:49;34.57;;;16.63;;
18853;SDS011;9556;49.374;19.446;2022-07-23T06:43:16;33.80;;;15.93;;
18853;SDS011;9556;49.374;19.446;2022-07-23T06:45:43;27.73;;;15.73;;
18853;SDS011;9556;49.374;19.446;2022-07-23T06:48:11;26.10;;;15.97;;
18853;SDS011;9556;49.374;19.446;2022-07-23T06:50:39;26.80;;;15.33;;
18853;SDS011;9556;49.374;19.446;2022-07-23T06:53:06;37.00;;;16.80;;
18853;SDS011;9556;49.374;19.446;2022-07-23T06:55:33;26.33;;;15.73;;
18853;SDS011;9556;49.374;19.446;2022-07-23T06:58:04;26.20;;;15.30;;
18853;SDS011;9556;49.374;19.446;2022-07-23T07:00:31;29.77;;;15.37;;
18853;SDS011;9556;49.374;19.446;2022-07-23T07:02:58;28.90;;;16.33;;
18853;SDS011;9556;49.374;19.446;2022-07-23T07:05:25;30.00;;;14.77;;
18853;SDS011;9556;49.374;19.446;2022-07-23T07:07:54;25.42;;;16.30;;
18853;SDS011;9556;49.374;19.446;2022-07-23T07:10:22;24.58;;;14.23;;
18853;SDS011;9556;49.374;19.446;2022-07-23T07:12:49;17.87;;;13.57;;
18853;SDS011;9556;49.374;19.446;2022-07-23T07:15:16;21.77;;;15.23;;
18853;SDS011;9556;49.374;19.446;2022-07-23T07:17:43;25.73;;;14.25;;
18853;SDS011;9556;49.374;19.446;2022-07-23T07:20:10;20.25;;;14.38;;
18853;SDS011;9556;49.374;19.446;2022-07-23T07:22:37;20.15;;;14.57;;
18853;SDS011;9556;49.374;19.446;2022-07-23T07:25:06;25.50;;;14.70;;
18853;SDS011;9556;49.374;19.446;2022-07-23T07:27:34;27.27;;;16.20;;
18853;SDS011;9556;49.374;19.446;2022-07-23T07:30:01;21.40;;;13.93;;
18853;SDS011;9556;49.374;19.446;2022-07-23T07:32:28;25.92;;;13.80;;
18853;SDS011;9556;49.374;19.446;2022-07-23T07:34:57;17.95;;;13.38;;
18853;SDS011;9556;49.374;19.446;2022-07-23T07:37:24;24.08;;;14.05;;
18853;SDS011;9556;49.374;19.446;2022-07-23T07:39:51;25.05;;;13.80;;
18853;SDS011;9556;49.374;19.446;2022-07-23T07:42:20;21.60;;;13.70;;
18853;SDS011;9556;49.374;19.446;2022-07-23T07:44:47;21.15;;;13.80;;
18853;SDS011;9556;49.374;19.446;2022-07-23T07:47:14;22.20;;;13.77;;
18853;SDS011;9556;49.374;19.446;2022-07-23T07:49:42;19.30;;;12.60;;
18853;SDS011;9556;49.374;19.446;2022-07-23T07:52:09;19.10;;;12.38;;
18853;SDS011;9556;49.374;19.446;2022-07-23T07:54:36;18.63;;;12.40;;
18853;SDS011;9556;49.374;19.446;2022-07-23T07:57:03;23.80;;;12.65;;
18853;SDS011;9556;49.374;19.446;2022-07-23T07:59:32;19.00;;;11.27;;
18853;SDS011;9556;49.374;19.446;2022-07-23T08:01:59;19.20;;;11.32;;
18853;SDS011;9556;49.374;19.446;2022-07-23T08:04:26;20.08;;;11.35;;
18853;SDS011;9556;49.374;19.446;2022-07-23T08:06:53;20.10;;;10.60;;
18853;SDS011;9556;49.374;19.446;2022-07-23T08:09:20;25.10;;;11.10;;
18853;SDS011;9556;49.374;19.446;2022-07-23T08:11:47;19.10;;;10.32;;
18853;SDS011;9556;49.374;19.446;2022-07-23T08:14:16;17.75;;;10.77;;
18853;SDS011;9556;49.374;19.446;2022-07-23T08:16:45;16.67;;;10.73;;
18853;SDS011;9556;49.374;19.446;2022-07-23T08:19:12;14.00;;;10.48;;
18853;SDS011;9556;49.374;19.446;2022-07-23T08:21:40;13.70;;;9.63;;
18853;SDS011;9556;49.374;19.446;2022-07-23T08:24:07;14.90;;;9.45;;
18853;SDS011;9556;49.374;19.446;2022-07-23T08:26:34;15.82;;;10.27;;
18853;SDS011;9556;49.374;19.446;2022-07-23T08:29:01;13.85;;;10.35;;
18853;SDS011;9556;49.374;19.446;2022-07-23T08:31:28;18.90;;;10.50;;
18853;SDS011;9556;49.374;19.446;2022-07-23T08:33:59;15.82;;;10.38;;
18853;SDS011;9556;49.374;19.446;2022-07-23T08:36:27;17.27;;;10.02;;
18853;SDS011;9556;49.374;19.446;2022-07-23T08:38:57;19.42;;;10.77;;
18853;SDS011;9556;49.374;19.446;2022-07-23T08:41:24;20.52;;;11.30;;
18853;SDS011;9556;49.374;19.446;2022-07-23T08:43:51;17.92;;;10.00;;
18853;SDS011;9556;49.374;19.446;2022-07-23T08:46:19;18.23;;;10.02;;
18853;SDS011;9556;49.374;19.446;2022-07-23T08:48:47;29.10;;;10.75;;
18853;SDS011;9556;49.374;19.446;2022-07-23T08:51:15;18.55;;;11.30;;
18853;SDS011;9556;49.374;19.446;2022-07-23T08:53:43;24.50;;;10.95;;
18853;SDS011;9556;49.374;19.446;2022-07-23T08:56:11;20.65;;;10.98;;
18853;SDS011;9556;49.374;19.446;2022-07-23T08:58:38;18.60;;;11.23;;
18853;SDS011;9556;49.374;19.446;2022-07-23T09:01:05;18.45;;;10.77;;
18853;SDS011;9556;49.374;19.446;2022-07-23T09:03:33;15.05;;;10.45;;
18853;SDS011;9556;49.374;19.446;2022-07-23T09:06:00;16.58;;;9.98;;
18853;SDS011;9556;49.374;19.446;2022-07-23T09:08:35;18.27;;;10.10;;
18853;SDS011;9556;49.374;19.446;2022-07-23T09:11:03;16.25;;;9.88;;
18853;SDS011;9556;49.374;19.446;2022-07-23T09:13:31;12.75;;;9.43;;
18853;SDS011;9556;49.374;19.446;2022-07-23T09:15:59;13.95;;;9.15;;
18853;SDS011;9556;49.374;19.446;2022-07-23T09:18:34;16.40;;;9.35;;
18853;SDS011;9556;49.374;19.446;2022-07-23T09:21:10;23.52;;;10.05;;
18853;SDS011;9556;49.374;19.446;2022-07-23T09:23:39;15.38;;;8.10;;
18853;SDS011;9556;49.374;19.446;2022-07-23T09:26:16;10.98;;;8.20;;
18853;SDS011;9556;49.374;19.446;2022-07-23T09:28:51;14.20;;;8.27;;
18853;SDS011;9556;49.374;19.446;2022-07-23T09:31:19;10.48;;;8.30;;
18853;SDS011;9556;49.374;19.446;2022-07-23T09:33:46;10.43;;;7.68;;
18853;SDS011;9556;49.374;19.446;2022-07-23T09:36:13;12.77;;;7.97;;
18853;SDS011;9556;49.374;19.446;2022-07-23T09:38:48;11.93;;;7.93;;
18853;SDS011;9556;49.374;19.446;2022-07-23T09:41:16;12.65;;;7.10;;
18853;SDS011;9556;49.374;19.446;2022-07-23T09:43:43;11.13;;;7.60;;
18853;SDS011;9556;49.374;19.446;2022-07-23T09:46:17;15.43;;;7.95;;
18853;SDS011;9556;49.374;19.446;2022-07-23T09:48:44;14.70;;;7.55;;
18853;SDS011;9556;49.374;19.446;2022-07-23T09:51:11;10.60;;;7.93;;
18853;SDS011;9556;49.374;19.446;2022-07-23T09:53:39;11.70;;;7.80;;
18853;SDS011;9556;49.374;19.446;2022-07-23T09:56:08;9.50;;;7.72;;
18853;SDS011;9556;49.374;19.446;2022-07-23T09:58:36;12.75;;;8.15;;
18853;SDS011;9556;49.374;19.446;2022-07-23T10:01:12;10.13;;;7.53;;
18853;SDS011;9556;49.374;19.446;2022-07-23T10:03:40;41.28;;;28.90;;
18853;SDS011;9556;49.374;19.446;2022-07-23T10:06:07;15.73;;;10.85;;
18853;SDS011;9556;49.374;19.446;2022-07-23T10:08:35;15.25;;;9.00;;
18853;SDS011;9556;49.374;19.446;2022-07-23T10:11:02;12.35;;;7.85;;
18853;SDS011;9556;49.374;19.446;2022-07-23T10:13:31;14.23;;;7.10;;
18853;SDS011;9556;49.374;19.446;2022-07-23T10:16:19;11.13;;;7.57;;
18853;SDS011;9556;49.374;19.446;2022-07-23T10:18:47;10.80;;;7.60;;
18853;SDS011;9556;49.374;19.446;2022-07-23T10:21:16;9.80;;;6.97;;
18853;SDS011;9556;49.374;19.446;2022-07-23T10:23:45;20.35;;;7.68;;
18853;SDS011;9556;49.374;19.446;2022-07-23T10:26:16;14.55;;;7.47;;
18853;SDS011;9556;49.374;19.446;2022-07-23T10:31:35;16.60;;;7.25;;
18853;SDS011;9556;49.374;19.446;2022-07-23T10:34:07;14.73;;;7.57;;
18853;SDS011;9556;49.374;19.446;2022-07-23T10:36:39;10.73;;;7.32;;
18853;SDS011;9556;49.374;19.446;2022-07-23T10:39:11;16.42;;;7.55;;
18853;SDS011;9556;49.374;19.446;2022-07-23T10:41:41;12.82;;;7.28;;
18853;SDS011;9556;49.374;19.446;2022-07-23T10:44:09;13.20;;;7.28;;
18853;SDS011;9556;49.374;19.446;2022-07-23T10:46:40;8.23;;;7.05;;
18853;SDS011;9556;49.374;19.446;2022-07-23T10:49:26;11.30;;;7.18;;
18853;SDS011;9556;49.374;19.446;2022-07-23T10:54:39;10.60;;;7.10;;
18853;SDS011;9556;49.374;19.446;2022-07-23T10:57:07;9.55;;;7.15;;
18853;SDS011;9556;49.374;19.446;2022-07-23T11:02:24;11.27;;;7.43;;
18853;SDS011;9556;49.374;19.446;2022-07-23T11:04:52;10.50;;;6.97;;
18853;SDS011;9556;49.374;19.446;2022-07-23T11:07:19;12.45;;;7.18;;
18853;SDS011;9556;49.374;19.446;2022-07-23T11:09:46;11.32;;;7.25;;
18853;SDS011;9556;49.374;19.446;2022-07-23T11:12:33;11.63;;;7.40;;
18853;SDS011;9556;49.374;19.446;2022-07-23T11:15:02;10.60;;;7.30;;
18853;SDS011;9556;49.374;19.446;2022-07-23T11:17:31;10.88;;;7.80;;
18853;SDS011;9556;49.374;19.446;2022-07-23T11:22:47;13.07;;;7.68;;
18853;SDS011;9556;49.374;19.446;2022-07-23T11:25:28;12.65;;;7.50;;
18853;SDS011;9556;49.374;19.446;2022-07-23T11:28:07;11.35;;;7.15;;
18853;SDS011;9556;49.374;19.446;2022-07-23T11:30:38;13.13;;;7.65;;
18853;SDS011;9556;49.374;19.446;2022-07-23T11:33:19;10.45;;;7.22;;
18853;SDS011;9556;49.374;19.446;2022-07-23T11:35:48;14.88;;;7.97;;
18853;SDS011;9556;49.374;19.446;2022-07-23T11:38:16;8.18;;;7.38;;
18853;SDS011;9556;49.374;19.446;2022-07-23T11:40:44;9.52;;;7.65;;
18853;SDS011;9556;49.374;19.446;2022-07-23T11:43:12;11.05;;;7.63;;
18853;SDS011;9556;49.374;19.446;2022-07-23T11:45:40;13.77;;;8.00;;
18853;SDS011;9556;49.374;19.446;2022-07-23T11:48:09;14.15;;;7.47;;
18853;SDS011;9556;49.374;19.446;2022-07-23T11:50:38;13.55;;;8.05;;
18853;SDS011;9556;49.374;19.446;2022-07-23T11:53:05;11.63;;;7.50;;
18853;SDS011;9556;49.374;19.446;2022-07-23T11:55:32;12.20;;;7.55;;
18853;SDS011;9556;49.374;19.446;2022-07-23T11:57:59;11.98;;;7.88;;
18853;SDS011;9556;49.374;19.446;2022-07-23T12:00:27;16.48;;;7.70;;
18853;SDS011;9556;49.374;19.446;2022-07-23T12:02:55;11.82;;;7.72;;
18853;SDS011;9556;49.374;19.446;2022-07-23T12:05:24;15.20;;;8.18;;
18853;SDS011;9556;49.374;19.446;2022-07-23T12:07:53;9.00;;;7.22;;
18853;SDS011;9556;49.374;19.446;2022-07-23T12:10:22;9.63;;;7.55;;
18853;SDS011;9556;49.374;19.446;2022-07-23T12:12:50;12.88;;;7.80;;
18853;SDS011;9556;49.374;19.446;2022-07-23T12:15:25;9.23;;;7.70;;
18853;SDS011;9556;49.374;19.446;2022-07-23T12:17:54;9.05;;;7.68;;
18853;SDS011;9556;49.374;19.446;2022-07-23T12:20:22;10.80;;;7.88;;
18853;SDS011;9556;49.374;19.446;2022-07-23T12:22:50;12.20;;;7.55;;
18853;SDS011;9556;49.374;19.446;2022-07-23T12:25:19;8.80;;;7.47;;
18853;SDS011;9556;49.374;19.446;2022-07-23T12:27:46;11.63;;;7.40;;
18853;SDS011;9556;49.374;19.446;2022-07-23T12:30:24;10.68;;;7.43;;
18853;SDS011;9556;49.374;19.446;2022-07-23T12:32:53;12.95;;;7.68;;
18853;SDS011;9556;49.374;19.446;2022-07-23T12:35:20;7.80;;;6.75;;
18853;SDS011;9556;49.374;19.446;2022-07-23T12:37:49;22.55;;;10.52;;
18853;SDS011;9556;49.374;19.446;2022-07-23T12:40:28;11.82;;;6.70;;
18853;SDS011;9556;49.374;19.446;2022-07-23T12:42:57;11.18;;;6.47;;
18853;SDS011;9556;49.374;19.446;2022-07-23T12:45:25;10.80;;;5.82;;
18853;SDS011;9556;49.374;19.446;2022-07-23T12:48:03;10.77;;;6.38;;
18853;SDS011;9556;49.374;19.446;2022-07-23T12:50:32;8.07;;;6.53;;
18853;SDS011;9556;49.374;19.446;2022-07-23T12:53:03;8.35;;;6.00;;
18853;SDS011;9556;49.374;19.446;2022-07-23T12:55:32;12.93;;;6.40;;
18853;SDS011;9556;49.374;19.446;2022-07-23T12:58:03;12.50;;;6.68;;
18853;SDS011;9556;49.374;19.446;2022-07-23T13:00:31;11.00;;;7.10;;
18853;SDS011;9556;49.374;19.446;2022-07-23T13:02:58;9.35;;;5.78;;
18853;SDS011;9556;49.374;19.446;2022-07-23T13:05:25;14.55;;;5.65;;
18853;SDS011;9556;49.374;19.446;2022-07-23T13:07:52;13.40;;;5.82;;
18853;SDS011;9556;49.374;19.446;2022-07-23T13:10:19;7.22;;;5.40;;
18853;SDS011;9556;49.374;19.446;2022-07-23T13:12:48;7.78;;;5.45;;
18853;SDS011;9556;49.374;19.446;2022-07-23T13:15:15;8.23;;;5.40;;
18853;SDS011;9556;49.374;19.446;2022-07-23T13:17:42;10.48;;;5.93;;
18853;SDS011;9556;49.374;19.446;2022-07-23T13:20:10;14.73;;;6.47;;
18853;SDS011;9556;49.374;19.446;2022-07-23T13:22:38;10.90;;;7.13;;
18853;SDS011;9556;49.374;19.446;2022-07-23T13:25:05;11.80;;;6.65;;
18853;SDS011;9556;49.374;19.446;2022-07-23T13:27:33;8.90;;;6.60;;
18853;SDS011;9556;49.374;19.446;2022-07-23T13:30:01;10.52;;;6.70;;
18853;SDS011;9556;49.374;19.446;2022-07-23T13:32:29;10.00;;;6.57;;
18853;SDS011;9556;49.374;19.446;2022-07-23T13:34:56;25.00;;;7.80;;
18853;SDS011;9556;49.374;19.446;2022-07-23T13:37:23;20.85;;;8.45;;
18853;SDS011;9556;49.374;19.446;2022-07-23T13:39:51;13.93;;;8.05;;
18853;SDS011;9556;49.374;19.446;2022-07-23T13:42:18;14.75;;;8.35;;
18853;SDS011;9556;49.374;19.446;2022-07-23T13:44:45;23.20;;;8.13;;
18853;SDS011;9556;49.374;19.446;2022-07-23T13:47:14;14.60;;;8.68;;
18853;SDS011;9556;49.374;19.446;2022-07-23T13:49:41;11.38;;;7.97;;
18853;SDS011;9556;49.374;19.446;2022-07-23T13:52:08;12.13;;;8.00;;
18853;SDS011;9556;49.374;19.446;2022-07-23T13:54:35;11.10;;;7.45;;
18853;SDS011;9556;49.374;19.446;2022-07-23T13:57:03;10.00;;;7.57;;
18853;SDS011;9556;49.374;19.446;2022-07-23T13:59:30;18.02;;;7.32;;
18853;SDS011;9556;49.374;19.446;2022-07-23T14:01:57;10.27;;;7.60;;
18853;SDS011;9556;49.374;19.446;2022-07-23T14:04:26;13.55;;;7.97;;
18853;SDS011;9556;49.374;19.446;2022-07-23T14:06:53;15.52;;;8.90;;
18853;SDS011;9556;49.374;19.446;2022-07-23T14:09:20;15.90;;;9.10;;
18853;SDS011;9556;49.374;19.446;2022-07-23T14:11:47;14.95;;;8.25;;
18853;SDS011;9556;49.374;19.446;2022-07-23T14:14:15;10.40;;;7.60;;
18853;SDS011;9556;49.374;19.446;2022-07-23T14:16:43;14.52;;;10.90;;
18853;SDS011;9556;49.374;19.446;2022-07-23T14:19:10;16.40;;;11.27;;
18853;SDS011;9556;49.374;19.446;2022-07-23T14:21:39;24.48;;;9.95;;
18853;SDS011;9556;49.374;19.446;2022-07-23T14:24:06;28.92;;;8.75;;
18853;SDS011;9556;49.374;19.446;2022-07-23T14:26:33;18.15;;;7.32;;
18853;SDS011;9556;49.374;19.446;2022-07-23T14:29:01;15.45;;;8.13;;
18853;SDS011;9556;49.374;19.446;2022-07-23T14:31:28;15.93;;;7.45;;
18853;SDS011;9556;49.374;19.446;2022-07-23T14:33:55;12.20;;;6.30;;
18853;SDS011;9556;49.374;19.446;2022-07-23T14:36:23;9.15;;;5.63;;
18853;SDS011;9556;49.374;19.446;2022-07-23T14:38:52;11.55;;;6.28;;
18853;SDS011;9556;49.374;19.446;2022-07-23T14:41:19;8.85;;;5.55;;